Time;durP1;ratioP1;P1;durP2;ratioP2;P2;SDS_P1;SDS_P2;PMS_P1;PMS_P2;Temp;Humidity;BMP_temperature;BMP_pressure;BME280_temperature;BME280_humidity;BME280_pressure;Samples;Min_cycle;Max_cycle;Signal;HPM_P1;HPM_P2
2023/04/01 00:00:28;;;;;;;59.78;8.85;;;;;;;7.10;100.00;99191.84;5091031;28;20073;-74
2023/04/01 00:02:53;;;;;;;44.10;7.20;;;;;;;7.09;100.00;99195.50;5090550;28;20048;-75
2023/04/01 00:05:19;;;;;;;50.95;7.75;;;;;;;7.07;100.00;99194.81;5072234;28;20093;-76
2023/04/01 00:07:45;;;;;;;34.78;6.30;;;;;;;7.06;100.00;99196.66;5090795;28;20357;-75
2023/04/01 00:10:12;;;;;;;31.80;5.43;;;;;;;7.06;100.00;99201.09;5090303;28;20028;-76
2023/04/01 00:12:39;;;;;;;36.95;7.00;;;;;;;7.03;100.00;99207.53;5090757;28;20395;-76
2023/04/01 00:15:06;;;;;;;31.83;5.80;;;;;;;7.02;100.00;99208.50;5090067;28;20080;-72
2023/04/01 00:17:32;;;;;;;41.40;6.43;;;;;;;7.01;100.00;99212.13;5090455;28;20063;-76
2023/04/01 00:19:57;;;;;;;36.17;6.10;;;;;;;7.00;100.00;99201.72;5090436;28;20353;-77
2023/04/01 00:22:24;;;;;;;32.03;6.13;;;;;;;7.00;100.00;99205.22;5089703;28;20037;-76
2023/04/01 00:24:50;;;;;;;33.55;6.00;;;;;;;7.00;100.00;99210.50;5090611;28;20138;-76
2023/04/01 00:27:16;;;;;;;42.60;7.30;;;;;;;6.99;100.00;99214.13;5090083;28;20135;-76
2023/04/01 00:29:42;;;;;;;41.50;7.25;;;;;;;7.01;100.00;99217.44;5090439;28;20118;-76
2023/04/01 00:32:08;;;;;;;45.33;7.07;;;;;;;6.99;100.00;99219.41;5090558;28;20122;-76
2023/04/01 00:34:33;;;;;;;52.78;6.43;;;;;;;6.99;100.00;99206.19;5072326;28;20112;-76
2023/04/01 00:36:58;;;;;;;35.78;6.63;;;;;;;6.98;100.00;99216.91;5091113;28;20032;-76
2023/04/01 00:39:24;;;;;;;45.72;7.05;;;;;;;6.98;100.00;99230.16;5090503;28;20325;-75
2023/04/01 00:41:49;;;;;;;43.33;6.95;;;;;;;6.97;100.00;99225.81;5090648;28;20131;-75
2023/04/01 00:44:19;;;;;;;50.00;7.72;;;;;;;6.96;100.00;99226.84;5089678;28;20111;-74
2023/04/01 00:46:44;;;;;;;58.50;8.52;;;;;;;6.94;100.00;99232.28;5090336;28;20444;-75
2023/04/01 00:49:10;;;;;;;52.97;8.60;;;;;;;6.93;100.00;99240.38;5089970;28;20145;-76
2023/04/01 00:51:38;;;;;;;70.50;9.30;;;;;;;6.94;100.00;99247.28;5090532;28;20109;-77
2023/04/01 00:54:05;;;;;;;85.45;9.52;;;;;;;6.94;100.00;99242.00;5090535;28;20111;-75
2023/04/01 00:56:35;;;;;;;53.53;8.00;;;;;;;6.93;100.00;99240.38;5089587;28;20137;-74
2023/04/01 00:59:08;;;;;;;45.50;7.28;;;;;;;6.92;100.00;99242.16;5090486;28;20089;-76
2023/04/01 01:01:35;;;;;;;44.47;7.05;;;;;;;6.91;100.00;99244.97;5089923;28;20526;-76
2023/04/01 01:04:02;;;;;;;46.80;7.18;;;;;;;6.89;100.00;99248.59;5090220;28;20028;-76
2023/04/01 01:06:48;;;;;;;51.78;7.45;;;;;;;6.89;100.00;99253.03;5089921;28;20180;-75
2023/04/01 01:09:32;;;;;;;39.40;6.70;;;;;;;6.90;100.00;99249.44;5089858;28;20024;-74
2023/04/01 01:12:11;;;;;;;40.42;7.22;;;;;;;6.91;100.00;99255.53;5089824;28;20070;-75
2023/04/01 01:15:08;;;;;;;36.78;6.45;;;;;;;6.87;100.00;99250.56;5089764;28;20039;-75
2023/04/01 01:17:39;;;;;;;39.20;6.40;;;;;;;6.88;100.00;99257.53;5089329;28;20613;-76
2023/04/01 01:20:41;;;;;;;32.83;5.40;;;;;;;6.86;100.00;99259.47;5089821;28;20032;-75
2023/04/01 01:23:17;;;;;;;;;;;;;;;6.87;100.00;99261.13;5090350;28;20097;-77
2023/04/01 01:26:13;;;;;;;47.28;6.85;;;;;;;6.87;100.00;99266.44;5089983;28;19955;-76
2023/04/01 01:29:11;;;;;;;35.15;6.15;;;;;;;6.87;100.00;99274.34;5071481;28;20047;-76
2023/04/01 01:32:04;;;;;;;31.60;6.05;;;;;;;6.88;100.00;99273.38;5051518;28;20400;-76
2023/04/01 01:34:40;;;;;;;37.67;6.07;;;;;;;6.88;100.00;99276.03;5088935;28;20032;-76
2023/04/01 01:37:11;;;;;;;35.78;6.22;;;;;;;6.89;100.00;99275.03;5089666;28;20537;-76
2023/04/01 01:39:39;;;;;;;38.30;6.40;;;;;;;6.88;100.00;99283.09;5088967;28;20032;-76
2023/04/01 01:42:09;;;;;;;41.63;6.25;;;;;;;6.90;100.00;99283.81;5089497;28;20020;-76
2023/04/01 01:44:37;;;;;;;35.30;6.43;;;;;;;6.89;100.00;99280.31;5088669;28;20020;-76
2023/04/01 01:47:03;;;;;;;36.38;6.53;;;;;;;6.89;100.00;99282.13;5089209;28;20533;-79
2023/04/01 01:49:32;;;;;;;29.83;5.50;;;;;;;6.89;100.00;99285.59;5088818;28;20070;-77
2023/04/01 01:51:57;;;;;;;37.13;6.78;;;;;;;6.91;100.00;99287.25;5089246;28;20546;-75
2023/04/01 01:54:23;;;;;;;34.22;6.30;;;;;;;6.90;100.00;99291.72;5089221;28;20066;-76
2023/04/01 01:56:55;;;;;;;43.55;7.47;;;;;;;6.89;100.00;99298.81;5090933;28;20051;-75
2023/04/01 01:59:23;;;;;;;35.95;7.03;;;;;;;6.93;100.00;99304.66;5074874;28;20028;-75
2023/04/01 02:01:53;;;;;;;42.88;7.30;;;;;;;6.91;100.00;99297.84;5093289;28;20445;-77
2023/04/01 02:04:20;;;;;;;33.88;6.97;;;;;;;6.92;100.00;99302.16;5093877;28;20110;-77
2023/04/01 02:06:55;;;;;;;23.92;6.22;;;;;;;6.92;100.00;99308.25;5093479;28;20040;-76
2023/04/01 02:09:21;;;;;;;47.17;7.93;;;;;;;6.94;100.00;99313.41;5093020;28;20028;-73
2023/04/01 02:11:52;;;;;;;28.52;6.68;;;;;;;6.95;100.00;99320.34;5074674;28;20043;-76
2023/04/01 02:14:22;;;;;;;34.72;7.07;;;;;;;6.96;100.00;99328.13;5093398;28;20059;-76
2023/04/01 02:16:57;;;;;;;28.58;6.90;;;;;;;6.98;100.00;99327.97;5093422;28;20032;-76
2023/04/01 02:19:27;;;;;;;42.63;8.23;;;;;;;7.00;100.00;99329.50;5074171;28;20024;-75
2023/04/01 02:22:01;;;;;;;31.77;7.75;;;;;;;7.01;100.00;99336.44;5093088;28;20062;-75
2023/04/01 02:24:29;;;;;;;29.88;7.97;;;;;;;7.03;100.00;99338.91;5092126;28;20058;-76
2023/04/01 02:26:55;;;;;;;37.58;8.32;;;;;;;7.05;100.00;99334.31;5092271;28;20090;-75
2023/04/01 02:29:23;;;;;;;30.17;8.48;;;;;;;7.05;100.00;99348.38;5074335;28;20367;-75
2023/04/01 02:31:49;;;;;;;32.65;9.30;;;;;;;7.05;100.00;99344.91;5092237;28;20498;-76
2023/04/01 02:34:15;;;;;;;33.33;9.93;;;;;;;7.07;100.00;99346.41;5092240;28;20115;-75
2023/04/01 02:36:41;;;;;;;32.30;9.98;;;;;;;7.06;100.00;99351.84;5092051;28;20177;-76
2023/04/01 02:39:08;;;;;;;32.22;9.55;;;;;;;7.07;100.00;99351.69;5092366;28;20040;-75
2023/04/01 02:41:39;;;;;;;33.58;9.73;;;;;;;7.06;100.00;99352.69;5092224;28;20448;-76
2023/04/01 02:44:06;;;;;;;33.40;10.80;;;;;;;7.08;100.00;99363.13;5092567;28;20023;-75
2023/04/01 02:46:31;;;;;;;33.65;10.15;;;;;;;7.11;100.00;99362.81;5091849;28;20039;-75
2023/04/01 02:48:56;;;;;;;49.22;11.45;;;;;;;7.07;100.00;99362.25;5074532;28;20481;-76
2023/04/01 02:51:22;;;;;;;33.03;10.43;;;;;;;7.08;100.00;99373.69;5092324;28;20107;-76
2023/04/01 02:53:47;;;;;;;45.28;12.63;;;;;;;7.09;100.00;99366.59;5092090;28;20074;-75
2023/04/01 02:56:12;;;;;;;41.42;11.68;;;;;;;7.10;100.00;99370.91;5092400;28;20028;-75
2023/04/01 02:58:38;;;;;;;53.78;13.57;;;;;;;7.09;100.00;99377.16;5091782;28;20067;-76
2023/04/01 03:01:03;;;;;;;50.47;12.75;;;;;;;7.07;100.00;99379.97;5092395;28;20145;-77
2023/04/01 03:03:28;;;;;;;46.97;12.65;;;;;;;7.09;100.00;99377.16;5073768;28;20063;-76
2023/04/01 03:05:56;;;;;;;46.95;12.85;;;;;;;7.07;100.00;99394.00;5074223;28;20044;-76
2023/04/01 03:08:21;;;;;;;49.92;13.95;;;;;;;7.06;100.00;99399.44;5092162;28;20117;-76
2023/04/01 03:10:46;;;;;;;50.50;13.30;;;;;;;7.05;100.00;99403.91;5092040;28;20082;-76
2023/04/01 03:13:12;;;;;;;52.55;13.15;;;;;;;7.04;100.00;99401.41;5092358;28;20028;-76
2023/04/01 03:15:37;;;;;;;54.50;12.25;;;;;;;7.04;100.00;99409.34;5091675;28;20028;-76
2023/04/01 03:18:03;;;;;;;52.08;12.25;;;;;;;7.05;100.00;99417.13;5092732;28;20040;-76
2023/04/01 03:20:28;;;;;;;37.50;10.73;;;;;;;7.07;100.00;99417.00;5092583;28;20028;-75
2023/04/01 03:22:54;;;;;;;58.55;12.75;;;;;;;7.08;100.00;99421.31;5091931;28;20054;-76
2023/04/01 03:25:19;;;;;;;44.63;11.75;;;;;;;7.09;100.00;99430.91;5073968;28;20060;-75
2023/04/01 03:27:45;;;;;;;37.10;11.13;;;;;;;7.11;100.00;99436.88;5092079;28;20043;-76
2023/04/01 03:30:10;;;;;;;63.97;12.77;;;;;;;7.11;100.00;99441.34;5093081;28;20139;-75
2023/04/01 03:32:37;;;;;;;55.83;13.38;;;;;;;7.11;100.00;99447.44;5092929;28;20060;-74
2023/04/01 03:35:02;;;;;;;63.75;12.82;;;;;;;7.10;100.00;99443.13;5092551;28;20081;-76
2023/04/01 03:37:28;;;;;;;58.08;12.35;;;;;;;7.11;100.00;99455.38;5091477;28;20107;-75
2023/04/01 03:39:53;;;;;;;65.82;12.35;;;;;;;7.12;100.00;99453.56;5090992;28;20044;-75
2023/04/01 03:42:18;;;;;;;51.13;12.55;;;;;;;7.11;100.00;99463.31;5073007;28;20028;-77
2023/04/01 03:44:44;;;;;;;64.70;11.98;;;;;;;7.12;100.00;99465.00;5072723;28;20111;-75
2023/04/01 03:47:09;;;;;;;61.90;13.02;;;;;;;7.14;100.00;99459.56;5091278;28;20032;-76
2023/04/01 03:49:35;;;;;;;45.70;11.55;;;;;;;7.14;100.00;99464.84;5090937;28;20452;-74
2023/04/01 03:52:00;;;;;;;58.13;13.38;;;;;;;7.15;100.00;99469.13;5091371;28;20436;-77
2023/04/01 03:54:26;;;;;;;56.97;13.57;;;;;;;7.15;100.00;99482.34;5090786;28;20048;-76
2023/04/01 03:56:51;;;;;;;47.72;12.07;;;;;;;7.14;100.00;99481.53;5072489;28;20025;-77
2023/04/01 03:59:17;;;;;;;54.05;12.95;;;;;;;7.12;100.00;99483.50;5072494;28;20459;-76
2023/04/01 04:01:42;;;;;;;56.13;12.45;;;;;;;7.12;100.00;99494.09;5090467;28;20115;-75
2023/04/01 04:04:11;;;;;;;49.25;12.73;;;;;;;7.12;100.00;99496.72;5091140;28;20457;-75
2023/04/01 04:06:36;;;;;;;42.35;11.90;;;;;;;7.14;100.00;99501.88;5090861;28;20044;-75
2023/04/01 04:09:02;;;;;;;44.85;13.73;;;;;;;7.11;100.00;99507.47;5090967;28;20078;-76
2023/04/01 04:11:27;;;;;;;41.75;12.98;;;;;;;7.11;100.00;99510.09;5090614;28;20047;-76
2023/04/01 04:13:53;;;;;;;42.85;12.10;;;;;;;7.11;100.00;99520.69;5090477;28;20086;-76
2023/04/01 04:16:18;;;;;;;44.15;13.05;;;;;;;7.08;100.00;99516.53;5090857;28;20043;-77
2023/04/01 04:18:43;;;;;;;43.63;12.23;;;;;;;7.07;100.00;99520.97;5090144;28;20507;-76
2023/04/01 04:21:13;;;;;;;43.70;12.32;;;;;;;7.05;100.00;99527.41;5072040;28;20429;-76
2023/04/01 04:23:39;;;;;;;42.47;12.32;;;;;;;7.04;100.00;99531.84;5090067;28;20445;-76
2023/04/01 04:26:07;;;;;;;40.97;13.25;;;;;;;7.04;100.00;99536.31;5090689;28;20074;-75
2023/04/01 04:28:33;;;;;;;44.25;11.95;;;;;;;7.03;100.00;99534.63;5090547;28;20028;-75
2023/04/01 04:30:59;;;;;;;40.42;11.88;;;;;;;7.04;100.00;99542.41;5089992;28;20469;-76
2023/04/01 04:33:25;;;;;;;51.85;13.73;;;;;;;7.01;100.00;99545.34;5090441;28;20052;-76
2023/04/01 04:35:51;;;;;;;48.08;13.07;;;;;;;7.00;100.00;99550.78;5089526;28;20032;-76
2023/04/01 04:38:17;;;;;;;54.03;12.25;;;;;;;6.96;100.00;99541.53;5090463;28;20102;-76
2023/04/01 04:40:43;;;;;;;45.42;11.98;;;;;;;6.93;100.00;99550.56;5071775;28;20040;-76
2023/04/01 04:43:12;;;;;;;44.83;12.57;;;;;;;6.93;100.00;99558.50;5090149;28;20059;-76
2023/04/01 04:45:38;;;;;;;39.45;11.93;;;;;;;6.93;100.00;99561.16;5071991;28;20039;-77
2023/04/01 04:48:03;;;;;;;51.65;12.18;;;;;;;6.93;100.00;99566.44;5071396;28;20078;-75
2023/04/01 04:50:29;;;;;;;46.67;12.43;;;;;;;6.91;100.00;99567.56;5071649;28;20039;-75
2023/04/01 04:52:54;;;;;;;58.40;12.68;;;;;;;6.89;100.00;99576.44;5071227;28;20039;-75
2023/04/01 04:55:20;;;;;;;43.50;12.77;;;;;;;6.90;100.00;99577.31;5090239;28;20515;-76
2023/04/01 04:57:45;;;;;;;48.05;12.50;;;;;;;6.87;100.00;99583.72;5071557;28;20135;-75
2023/04/01 05:00:12;;;;;;;48.72;12.93;;;;;;;6.87;100.00;99585.53;5089503;28;20100;-76
2023/04/01 05:02:37;;;;;;;44.83;12.48;;;;;;;6.87;100.00;99591.66;5073125;28;20054;-76
2023/04/01 05:05:03;;;;;;;53.90;12.98;;;;;;;6.87;100.00;99596.09;5090261;28;20421;-76
2023/04/01 05:07:28;;;;;;;45.92;12.48;;;;;;;6.87;100.00;99604.88;5055203;28;20036;-75
2023/04/01 05:09:53;;;;;;;45.35;12.25;;;;;;;6.86;100.00;99605.00;5089339;28;20430;-77
2023/04/01 05:12:19;;;;;;;48.22;13.25;;;;;;;6.85;100.00;99614.75;5089563;28;20065;-74
2023/04/01 05:14:44;;;;;;;47.67;12.52;;;;;;;6.85;100.00;99619.19;5089881;28;20487;-75
2023/04/01 05:17:11;;;;;;;50.40;12.48;;;;;;;6.86;100.00;99620.88;5089450;28;20127;-75
2023/04/01 05:19:36;;;;;;;56.83;12.77;;;;;;;6.84;100.00;99617.56;5089847;28;20108;-75
2023/04/01 05:22:02;;;;;;;47.25;12.38;;;;;;;6.81;100.00;99618.66;5089524;28;20142;-76
2023/04/01 05:24:27;;;;;;;49.58;12.15;;;;;;;6.81;100.00;99625.78;5071437;28;20125;-75
2023/04/01 05:26:53;;;;;;;54.40;12.40;;;;;;;6.81;100.00;99628.41;5089258;28;20361;-75
2023/04/01 05:29:18;;;;;;;42.17;12.70;;;;;;;6.83;100.00;99624.63;5089901;28;20044;-76
2023/04/01 05:31:44;;;;;;;52.10;13.18;;;;;;;6.84;100.00;99636.88;5074061;28;20024;-77
2023/04/01 05:34:10;;;;;;;64.30;12.50;;;;;;;6.84;100.00;99642.19;5093353;28;20076;-77
2023/04/01 05:36:36;;;;;;;58.83;13.77;;;;;;;6.84;100.00;99644.81;5093644;28;20471;-77
2023/04/01 05:39:03;;;;;;;47.22;11.48;;;;;;;6.85;100.00;99653.56;5093348;28;20104;-75
2023/04/01 05:41:28;;;;;;;49.65;12.15;;;;;;;6.83;100.00;99652.91;5093496;28;20105;-76
2023/04/01 05:43:54;;;;;;;61.80;13.18;;;;;;;6.83;100.00;99658.19;5093171;28;20445;-77
2023/04/01 05:46:19;;;;;;;54.75;11.77;;;;;;;6.82;100.00;99664.44;5093529;28;20468;-77
2023/04/01 05:48:44;;;;;;;60.20;12.57;;;;;;;6.81;100.00;99654.88;5093472;28;20032;-77
2023/04/01 05:51:14;;;;;;;62.33;12.93;;;;;;;6.78;100.00;99669.19;5093204;28;20040;-76
2023/04/01 05:53:40;;;;;;;55.80;12.68;;;;;;;6.78;100.00;99671.84;5074981;28;20032;-75
2023/04/01 05:56:06;;;;;;;52.85;13.05;;;;;;;6.79;100.00;99673.50;5092929;28;20028;-76
2023/04/01 05:58:32;;;;;;;57.38;12.77;;;;;;;6.79;100.00;99678.81;5093184;28;20047;-76
2023/04/01 06:01:06;;;;;;;49.30;13.55;;;;;;;6.78;100.00;99684.22;5092848;28;20032;-76
2023/04/01 06:03:32;;;;;;;53.42;13.23;;;;;;;6.78;100.00;99693.00;5093072;28;20060;-76
2023/04/01 06:05:57;;;;;;;52.15;14.25;;;;;;;6.81;100.00;99694.53;5092655;28;20115;-75
2023/04/01 06:08:24;;;;;;;47.78;12.45;;;;;;;6.80;100.00;99703.41;5093016;28;20092;-76
2023/04/01 06:11:16;;;;;;;39.60;11.15;;;;;;;6.80;100.00;99704.25;5093225;28;20031;-75
2023/04/01 06:14:00;;;;;;;50.15;12.07;;;;;;;6.81;100.00;99713.03;5092778;28;20050;-76
2023/04/01 06:16:48;;;;;;;43.05;10.57;;;;;;;6.82;100.00;99714.69;5093041;28;20059;-75
2023/04/01 06:19:41;;;;;;;38.90;10.82;;;;;;;6.83;100.00;99719.00;5091990;28;20127;-75
2023/04/01 06:22:55;;;;;;;50.72;11.60;;;;;;;6.86;100.00;99727.47;5073879;28;20074;-75
2023/04/01 06:25:20;;;;;;;50.78;11.13;;;;;;;6.88;100.00;99737.91;5052123;28;20068;-75
2023/04/01 06:27:51;;;;;;;41.85;11.60;;;;;;;6.88;100.00;99736.09;5074170;28;20130;-76
2023/04/01 06:30:48;;;;;;;45.30;10.93;;;;;;;6.91;100.00;99744.72;5092000;28;20473;-76
2023/04/01 06:33:29;;;;;;;35.03;9.40;;;;;;;6.90;100.00;99749.19;5091902;28;20020;-76
2023/04/01 06:36:13;;;;;;;50.30;11.48;;;;;;;6.96;100.00;99750.44;5092127;28;20058;-76
2023/04/01 06:39:13;;;;;;;26.98;8.68;;;;;;;7.01;100.00;99754.28;5092068;28;20031;-76
2023/04/01 06:41:44;;;;;;;30.25;9.57;;;;;;;7.06;100.00;99756.50;5092126;28;20444;-76
2023/04/01 06:44:19;;;;;;;28.00;8.57;;;;;;;7.07;100.00;99760.84;5090869;28;20407;-77
2023/04/01 06:46:48;;;;;;;25.77;8.10;;;;;;;7.07;100.00;99761.66;5092250;28;20349;-76
2023/04/01 06:49:13;;;;;;;38.08;8.65;;;;;;;7.05;100.00;99762.81;5073420;28;20035;-76
2023/04/01 06:51:54;;;;;;;32.45;8.85;;;;;;;7.05;100.00;99768.91;5073854;28;20025;-76
2023/04/01 06:54:37;;;;;;;26.83;8.52;;;;;;;7.07;100.00;99760.84;5091638;28;20471;-75
2023/04/01 06:57:13;;;;;;;26.10;8.35;;;;;;;7.09;100.00;99765.97;5092099;28;20062;-76
2023/04/01 06:59:40;;;;;;;21.17;7.60;;;;;;;7.12;100.00;99774.47;5091981;28;20043;-76
2023/04/01 07:02:23;;;;;;;13.23;5.82;;;;;;;7.13;100.00;99778.78;5073152;28;20094;-76
2023/04/01 07:04:53;;;;;;;14.13;6.55;;;;;;;7.16;100.00;99782.97;5091999;28;20380;-77
2023/04/01 07:07:30;;;;;;;12.87;5.20;;;;;;;7.16;100.00;99786.44;5091460;28;20071;-78
2023/04/01 07:09:59;;;;;;;11.68;4.95;;;;;;;7.18;100.00;99788.94;5091690;28;20443;-77
2023/04/01 07:12:35;;;;;;;10.27;4.97;;;;;;;7.18;100.00;99791.56;5091330;28;20106;-76
2023/04/01 07:15:13;;;;;;;14.27;5.63;;;;;;;7.09;100.00;99797.72;5091829;28;20047;-75
2023/04/01 07:17:41;;;;;;;15.30;6.03;;;;;;;7.10;100.00;99800.22;5091532;28;20032;-75
2023/04/01 07:20:19;;;;;;;25.50;7.65;;;;;;;7.13;100.00;99805.22;5090962;28;20121;-78
2023/04/01 07:22:51;;;;;;;27.92;7.18;;;;;;;7.12;100.00;99805.38;5091256;28;20561;-74
2023/04/01 07:25:20;;;;;;;21.80;7.38;;;;;;;7.14;100.00;99803.44;5090561;28;20337;-71
2023/04/01 07:27:46;;;;;;;45.13;9.23;;;;;;;7.16;100.00;99807.59;5091140;28;20184;-78
2023/04/01 07:30:18;;;;;;;30.33;7.82;;;;;;;7.15;100.00;99810.38;5086311;28;20265;-75
2023/04/01 07:32:49;;;;;;;29.20;9.07;;;;;;;7.20;100.00;99826.69;5088444;28;20453;-74
2023/04/01 07:35:30;;;;;;;29.90;8.07;;;;;;;7.21;100.00;99826.53;5088184;28;20099;-75
2023/04/01 07:38:14;;;;;;;58.95;8.95;;;;;;;7.19;100.00;99832.94;5088491;28;20038;-76
2023/04/01 07:41:01;;;;;;;54.92;9.25;;;;;;;7.18;100.00;99831.25;5088114;28;20041;-76
2023/04/01 07:43:56;;;;;;;48.47;8.80;;;;;;;7.21;100.00;99834.47;5088408;28;20083;-77
2023/04/01 07:46:53;;;;;;;41.85;9.15;;;;;;;7.31;100.00;99836.25;5087833;28;20115;-75
2023/04/01 07:49:42;;;;;;;31.88;8.73;;;;;;;7.37;100.00;99843.63;5069436;28;20032;-75
2023/04/01 07:52:31;;;;;;;34.95;8.63;;;;;;;7.39;100.00;99845.16;5088006;28;20055;-74
2023/04/01 07:55:28;;;;;;;39.03;9.55;;;;;;;7.44;100.00;99852.66;5087855;28;20464;-75
2023/04/01 07:58:06;;;;;;;28.35;9.85;;;;;;;7.46;100.00;99850.69;5087670;28;20126;-75
2023/04/01 08:00:46;;;;;;;30.13;9.88;;;;;;;7.50;100.00;99852.09;5087477;28;20031;-75
2023/04/01 08:03:48;;;;;;;33.65;10.55;;;;;;;7.48;100.00;99866.44;5087410;28;20052;-76
2023/04/01 08:06:18;;;;;;;37.08;10.35;;;;;;;7.47;100.00;99870.91;5087548;28;20115;-72
2023/04/01 08:08:46;;;;;;;36.78;10.80;;;;;;;7.54;100.00;99863.25;5088002;28;20035;-76
2023/04/01 08:11:46;;;;;;;36.20;9.88;;;;;;;7.55;100.00;99873.69;5087478;28;20027;-76
2023/04/01 08:14:21;;;;;;;37.65;9.88;;;;;;;7.56;100.00;99879.81;5087548;28;20108;-75
2023/04/01 08:17:12;;;;;;;40.28;11.10;;;;;;;7.57;100.00;99886.78;5069156;28;20433;-75
2023/04/01 08:19:55;;;;;;;39.47;10.13;;;;;;;7.60;100.00;99894.44;5073807;28;20059;-76
2023/04/01 08:22:28;;;;;;;39.97;9.98;;;;;;;7.65;100.00;99888.72;5088685;28;20404;-73
2023/04/01 08:24:59;;;;;;;27.35;8.98;;;;;;;7.68;100.00;99899.00;5089678;28;20020;-75
2023/04/01 08:27:33;;;;;;;29.92;9.25;;;;;;;7.68;100.00;99899.84;5089281;28;20020;-73
2023/04/01 08:30:01;;;;;;;35.78;9.43;;;;;;;7.67;100.00;99900.81;5089541;28;20429;-75
2023/04/01 08:32:37;;;;;;;35.45;9.75;;;;;;;7.65;100.00;99900.13;5089654;28;20034;-75
2023/04/01 08:35:25;;;;;;;40.45;10.98;;;;;;;7.66;100.00;99904.44;5071802;28;20031;-77
2023/04/01 08:37:53;;;;;;;40.10;10.15;;;;;;;7.66;100.00;99901.81;5040363;28;20131;-76
2023/04/01 08:40:43;;;;;;;28.25;9.05;;;;;;;7.69;100.00;99911.28;5089718;28;20058;-77
2023/04/01 08:43:26;;;;;;;26.27;8.07;;;;;;;7.60;100.00;99915.63;5089720;28;20128;-76
2023/04/01 08:46:16;;;;;;;26.85;8.10;;;;;;;7.55;100.00;99916.03;5089957;28;20024;-74
2023/04/01 08:48:57;;;;;;;26.83;8.43;;;;;;;7.48;100.00;99924.66;5090188;28;20024;-75
2023/04/01 08:51:38;;;;;;;27.97;9.27;;;;;;;7.52;100.00;99932.19;5089995;28;20032;-74
2023/04/01 08:54:29;;;;;;;29.42;10.55;;;;;;;7.53;100.00;99935.69;5089291;28;20255;-73
2023/04/01 08:57:03;;;;;;;43.78;11.40;;;;;;;7.51;100.00;99940.28;5089858;28;20066;-73
2023/04/01 08:59:56;;;;;;;34.53;10.68;;;;;;;7.47;100.00;99937.06;5089090;28;20455;-76
2023/04/01 09:02:39;;;;;;;35.03;10.30;;;;;;;7.50;100.00;99944.75;5088767;28;20040;-75
2023/04/01 09:05:55;;;;;;;38.22;11.05;;;;;;;7.56;100.00;99938.06;5089169;28;20024;-74
2023/04/01 09:08:23;;;;;;;42.78;11.27;;;;;;;7.66;100.00;99945.97;5089355;28;20071;-75
2023/04/01 09:11:07;;;;;;;35.50;10.43;;;;;;;7.66;100.00;99960.06;5089705;28;20032;-76
2023/04/01 09:13:49;;;;;;;38.72;11.90;;;;;;;7.67;100.00;99966.19;5070607;28;20120;-75
2023/04/01 09:16:27;;;;;;;31.38;10.02;;;;;;;7.62;100.00;99957.84;5089374;28;20032;-75
2023/04/01 09:19:22;;;;;;;40.75;10.50;;;;;;;7.52;100.00;99965.78;5071207;28;20124;-77
2023/04/01 09:22:00;;;;;;;29.38;10.77;;;;;;;7.53;100.00;99962.16;5089490;28;20028;-74
2023/04/01 09:24:53;;;;;;;27.77;9.35;;;;;;;7.53;100.00;99970.94;5088762;28;20039;-74
2023/04/01 09:27:26;;;;;;;26.33;8.98;;;;;;;7.50;100.00;99976.50;5089064;28;20110;-75
2023/04/01 09:29:52;;;;;;;34.08;11.18;;;;;;;7.48;100.00;99967.88;5089052;28;20101;-74
2023/04/01 09:32:42;;;;;;;27.63;9.57;;;;;;;7.55;100.00;99971.63;5089346;28;20116;-74
2023/04/01 09:35:16;;;;;;;26.33;9.35;;;;;;;7.63;100.00;99973.56;5088999;28;20088;-74
2023/04/01 09:37:47;;;;;;;23.35;8.48;;;;;;;7.68;100.00;99973.97;5089325;28;20036;-74
2023/04/01 09:40:13;;;;;;;;;;;;;;;7.69;100.00;99983.59;5089325;28;20035;-75
2023/04/01 09:42:59;;;;;;;16.63;6.05;;;;;;;7.74;100.00;99980.53;5088325;28;19911;-75
2023/04/01 09:45:43;;;;;;;17.80;6.35;;;;;;;7.82;100.00;99985.09;5088568;28;20221;-74
2023/04/01 09:48:27;;;;;;;17.02;8.20;;;;;;;7.89;100.00;99988.88;5089005;28;20486;-75
2023/04/01 09:51:14;;;;;;;28.65;9.00;;;;;;;7.88;100.00;99981.88;5088779;28;20024;-73
2023/04/01 09:53:58;;;;;;;36.95;10.85;;;;;;;7.89;100.00;99994.97;5088387;28;20039;-74
2023/04/01 09:56:49;;;;;;;38.22;11.40;;;;;;;7.98;100.00;99995.94;5070078;28;20036;-73
2023/04/01 09:59:31;;;;;;;27.20;9.02;;;;;;;8.10;100.00;99993.97;5088989;28;20084;-73
2023/04/01 10:02:33;;;;;;;29.90;10.45;;;;;;;8.21;100.00;100001.75;5088519;28;20055;-72
2023/04/01 10:05:34;;;;;;;25.33;9.63;;;;;;;8.29;100.00;100007.16;5088762;28;20196;-78
2023/04/01 10:08:17;;;;;;;34.08;10.25;;;;;;;8.34;100.00;100017.31;5088622;28;20032;-75
2023/04/01 10:11:05;;;;;;;28.00;9.95;;;;;;;8.27;100.00;100005.63;5088669;28;20442;-73
2023/04/01 10:13:41;;;;;;;30.42;10.18;;;;;;;8.41;100.00;100020.25;5092765;28;20046;-69
2023/04/01 10:16:22;;;;;;;25.98;9.75;;;;;;;8.45;100.00;100016.38;5093292;28;20028;-70
2023/04/01 10:19:11;;;;;;;28.50;10.07;;;;;;;8.38;100.00;100024.00;5077281;28;20050;-72
2023/04/01 10:21:59;;;;;;;23.50;9.18;;;;;;;8.39;100.00;100024.84;5078647;28;20036;-71
2023/04/01 10:24:30;;;;;;;23.17;8.85;;;;;;;8.44;100.00;100025.28;5096233;28;20153;-73
2023/04/01 10:27:08;;;;;;;;;;;;;;;8.46;100.00;100028.63;5096679;28;20104;-71
2023/04/01 10:29:48;;;;;;;31.88;9.82;;;;;;;8.43;100.00;100023.56;5096223;28;19959;-71
2023/04/01 10:32:38;;;;;;;30.42;9.93;;;;;;;8.37;100.00;100040.06;5078566;28;20032;-71
2023/04/01 10:35:06;;;;;;;26.33;9.32;;;;;;;8.36;100.00;100035.72;5096339;28;20032;-71
2023/04/01 10:37:37;;;;;;;39.55;10.13;;;;;;;8.29;100.00;100046.09;5095582;28;20059;-71
2023/04/01 10:40:08;;;;;;;37.63;11.63;;;;;;;8.25;100.00;100040.22;5096243;28;20032;-71
2023/04/01 10:43:05;;;;;;;34.80;11.40;;;;;;;8.23;100.00;100038.72;5095993;28;20403;-72
2023/04/01 10:45:50;;;;;;;28.60;10.43;;;;;;;8.21;100.00;100046.81;5096472;28;20338;-70
2023/04/01 10:48:34;;;;;;;34.33;10.30;;;;;;;8.20;100.00;100046.94;5096209;28;20448;-70
2023/04/01 10:51:25;;;;;;;28.00;9.43;;;;;;;8.22;100.00;100045.00;5095724;28;20031;-71
2023/04/01 10:54:21;;;;;;;36.00;10.95;;;;;;;8.27;100.00;100048.03;5095971;28;20032;-71
2023/04/01 10:56:48;;;;;;;40.53;11.05;;;;;;;8.39;100.00;100041.59;5095943;28;20107;-70
2023/04/01 10:59:35;;;;;;;28.17;9.82;;;;;;;8.49;100.00;100051.38;5095266;28;20039;-69
2023/04/01 11:02:22;;;;;;;27.35;10.40;;;;;;;8.49;100.00;100056.66;5077422;28;20035;-71
2023/04/01 11:05:07;;;;;;;32.40;11.18;;;;;;;8.47;100.00;100057.63;5095717;28;20460;-70
2023/04/01 11:08:03;;;;;;;32.92;11.18;;;;;;;8.46;100.00;100050.69;5095400;28;20055;-72
2023/04/01 11:10:50;;;;;;;25.80;9.30;;;;;;;8.57;100.00;100056.75;5095238;28;20031;-72
2023/04/01 11:13:34;;;;;;;32.17;10.23;;;;;;;8.64;100.00;100061.38;5094991;28;20154;-70
2023/04/01 11:16:19;;;;;;;34.50;11.90;;;;;;;8.65;100.00;100065.66;5095542;28;20036;-70
2023/04/01 11:19:06;;;;;;;31.88;10.70;;;;;;;8.60;100.00;100067.09;5095551;28;20040;-71
2023/04/01 11:22:02;;;;;;;41.22;11.82;;;;;;;8.54;100.00;100079.13;5095231;28;20038;-72
2023/04/01 11:24:49;;;;;;;30.52;11.25;;;;;;;8.56;100.00;100081.63;5095965;28;20391;-71
2023/04/01 11:28:00;;;;;;;34.17;11.35;;;;;;;8.56;100.00;100076.31;5095815;28;20031;-72
2023/04/01 11:30:37;;;;;;;29.65;10.23;;;;;;;8.62;100.00;100081.88;5038784;28;20093;-73
2023/04/01 11:33:22;;;;;;;30.55;9.80;;;;;;;8.68;100.00;100077.81;5095090;28;20024;-72
2023/04/01 11:36:35;;;;;;;31.75;11.15;;;;;;;8.79;100.00;100088.25;5095194;28;20031;-73
2023/04/01 11:39:23;;;;;;;24.90;9.05;;;;;;;8.88;100.00;100096.28;5085986;28;20072;-73
2023/04/01 11:41:57;;;;;;;29.60;10.40;;;;;;;9.02;100.00;100095.81;5095525;28;20031;-74
2023/04/01 11:44:29;;;;;;;27.27;8.73;;;;;;;9.08;100.00;100095.22;5095327;28;20034;-72
2023/04/01 11:47:10;;;;;;;23.92;9.13;;;;;;;9.08;100.00;100092.56;5095636;28;20056;-71
2023/04/01 11:50:00;;;;;;;26.38;8.93;;;;;;;8.94;100.00;100099.22;5095260;28;20024;-71
2023/04/01 11:52:37;;;;;;;26.33;9.40;;;;;;;8.84;100.00;100103.72;5095146;28;20047;-71
2023/04/01 11:55:41;;;;;;;19.50;8.70;;;;;;;8.78;100.00;100105.13;5077055;28;20074;-72